Home > Products > Valid Products > MTR

000
SAZS31 NSTU 050153
MTRPPG
METAR NSTU 050153Z 08011KT 12SM FEW023 SCT035 29/23 A2989 RMK SLP122
T02920228=




000
SAZS31 NSTU 050058
MTRPPG
METAR NSTU 050057Z 11009KT 12SM FEW023 SCT080 SCT180 29/23 A2990 RMK
SLP127 T02940232=




000
SAZS31 NSTU 050058
MTRPPG
METAR NSTU 050057Z 11009KT 12SM FEW023 SCT080 SCT180 29/23 A2990 RMK
SLP127 T02940232=




000
SAZS31 NSTU 042353
MTRPPG
METAR NSTU 042350Z 10010KT 12SM FEW023 SCT030 29/23 A2992 RMK SLP132
8/400 T02940227 10294 20257 57010=




000
SAZS31 NSTU 042353
MTRPPG
METAR NSTU 042350Z 10010KT 12SM FEW023 SCT030 29/23 A2992 RMK SLP132
8/400 T02940227 10294 20257 57010=




000
SAZS31 NSTU 042253
MTRPPG
METAR NSTU 042251Z 09012KT 12SM FEW023 SCT100 29/23 A2993 RMK SLP135
T02940225=




000
SAZS31 NSTU 042153
MTRPPG
METAR NSTU 042152Z 09012KT 12SM FEW023 SCT100 29/22 A2995 RMK SLP142
T02920224=




000
SAZS31 NSTU 042053
MTRPPG
METAR NSTU 042051Z 09013KT 12SM FEW023 SCT100 29/22 A2995 RMK SLP142
8/130 T02890223 50015=




000
SAZS31 NSTU 041951
MTRPPG
METAR NSTU 041950Z 09013KT 12SM FEW023 SCT100 28/22 A2995 RMK SLP142
T02760216=




000
SAZS31 NSTU 041853
MTRPPG
METAR NSTU 041852Z 09013KT 12SM FEW023 SCT110 27/22 A2992 RMK SLP134
T02680217=




000
SAZS31 NSTU 041853
MTRPPG
METAR NSTU 041852Z 09013KT 12SM FEW023 SCT110 27/22 A2992 RMK SLP134
T02680217=




000
SAZS31 NSTU 041753
MTRPPG
METAR NSTU 041750Z 09014KT 12SM FEW023 SCT110 26/21 A2990 RMK SLP127
60000 8/170 T02570214 10264 20257 51012=




000
SAZS31 NSTU 041652
MTRPPG
METAR NSTU 041652Z 09012KT 10SM FEW023 SCT110 26/22 A2989 RMK SLP124
T02570219=




000
SAZS31 NSTU 041551
MTRPPG
METAR NSTU 041550Z 09015KT 10SM SCT023 SCT110 26/22 A2987 RMK SLP117
T02570223=




000
SAZS31 NSTU 041452
MTRPPG
METAR NSTU 041451Z 09015KT 10SM FEW021 SCT045 SCT110 26/22 A2987 RMK
SLP115 60000 8/870 T02570220 57015=




000
SAZS31 NSTU 041443
MTRPPG
METAR NSTU 041354Z 10016KT 10SM FEW023 BKN045 BKN100 26/22 A2988 RMK
SLP117 T02580224=




000
SAZS31 NSTU 041254
MTRPPG
METAR NSTU 041253Z 08014KT 10SM FEW023 BKN045 BKN100 26/23 A2990 RMK
SHRAE10 SLP125 T02600228=




000
SAZS31 NSTU 041254
MTRPPG
METAR NSTU 041253Z 08014KT 10SM FEW023 BKN045 BKN100 26/23 A2990 RMK
SHRAE10 SLP125 T02600228=




000
SAZS31 NSTU 041155
MTRPPG
METAR NSTU 041152Z 09014KT 7SM -SHRA SCT020 BKN040 OVC100 26/23
A2991 RMK SHRAB50 SLP130 60000 70002 8/87/ T02640226 10265 20264
57002=




000
SAZS31 NSTU 041051
MTRPPG
METAR NSTU 041050Z 11012KT 10SM FEW023 SCT040 BKN110 27/22 A2991 RMK
SLP130 T02650223 402740252=




000
SAZS31 NSTU 040957
MTRPPG
METAR NSTU 040956Z 10014KT 10SM FEW023 SCT040 OVC110 26/22 A2992 RMK
SHRAE0852 SLP132 T02640222=




000
SAZS31 NSTU 040854
MTRPPG
METAR NSTU 040850Z 10014KT 10SM -SHRA SCT023 BKN034 26/22 A2992 RMK
SLP132 60000 8/800 T02640223 53012=




000
SAZS31 NSTU 040854
MTRPPG
METAR NSTU 040850Z 10014KT 10SM -SHRA SCT023 BKN034 26/22 A2992 RMK
SLP132 60000 8/800 T02640223 53012=




000
SAZS31 NSTU 040751
MTRPPG
METAR NSTU 040751Z 09015KT 10SM -SHRA SCT020 BKN034 BKN100 26/22
A2990 RMK SLP127 T02630224=





000
SAZS31 NSTU 040652
MTRPPG
METAR NSTU 040650Z 10016KT 10SM -SHRA SCT020 BKN038 BKN100 26/22
A2990 RMK SLP125 T02610224=





000
SAZS31 NSTU 040555
MTRPPG
METAR NSTU 040551Z 10016KT 10SM -SHRA SCT020 BKN038 BKN100 26/22
A2988 RMK SLP120 60002 8/870 T02620224 10274 20252 53008=




000
SAZS31 NSTU 040452
MTRPPG
METAR NSTU 040451Z 10015KT 12SM -SHRA SCT018 BKN040 BKN100 26/23
A2986 RMK SLP113 T02610225=





000
SAZS31 NSTU 040354
MTRPPG
METAR NSTU 040350Z 09014KT 12SM -SHRA SCT018 BKN040 BKN100 25/24
A2986 RMK -SHRAB25 SLP113 T02520235=





000
SAZS31 NSTU 040354
MTRPPG
METAR NSTU 040350Z 09014KT 12SM -SHRA SCT018 BKN040 BKN100 25/24
A2986 RMK -SHRAB25 SLP113 T02520235=





000
SAZS31 NSTU 040253
MTRPPG
METAR NSTU 040251Z 10014KT 12SM SCT018 BKN040 BKN100 27/23 A2986 RMK
SLP112 8/870 T02720234 56010=




000
SAZS31 NSTU 040150
MTRPPG
METAR NSTU 040150Z 10015KT 12SM FEW023 SCT040 BKN100 BKN180 27/24
A2985 RMK SLP110 T02740237=




000
SAZS31 NSTU 040050
MTRPPG
METAR NSTU 040050Z 11017KT 10SM SCT023 BKN040 OVC080 27/24 A2987 RMK
SLP115 T02710239=




000
SAZS31 NSTU 040050
MTRPPG
METAR NSTU 040050Z 11017KT 10SM SCT023 BKN040 OVC080 27/24 A2987 RMK
SLP115 T02710239=




000
SAZS31 NSTU 032354
MTRPPG
METAR NSTU 032351Z 10018KT 10SM SCT022 BKN040 OVC080 27/23 A2989 RMK
SLP122 8/42/ T02740232 10274 20261 57012=




000
SAZS31 NSTU 032251
MTRPPG
METAR NSTU 032251Z 10015KT 10SM SCT022 BKN040 OVC080 27/23 A2991 RMK
SLP129 T02720230=




000
SAZS31 NSTU 032152
MTRPPG
METAR NSTU 032151Z 11017KT 10SM SCT022 OVC040 27/23 A2992 RMK SLP134
T02700234=




000
SAZS31 NSTU 032152
MTRPPG
METAR NSTU 032151Z 11017KT 10SM SCT022 OVC040 27/23 A2992 RMK SLP134
T02700234=




000
SAZS31 NSTU 032053
MTRPPG
METAR NSTU 032052Z 10017KT 12SM FEW022 BKN040 BKN100 27/23 A2992 RMK
SLP134 8/410 T02730229 50014=




000
SAZS31 NSTU 031953
MTRPPG
METAR NSTU 031953Z 12017KT 12SM FEW022 BKN040 OVC100 27/22 A2992 RMK
SLP134 T02650221=




000
SAZS31 NSTU 031953
MTRPPG
METAR NSTU 031953Z 12017KT 12SM FEW022 BKN040 OVC100 27/22 A2992 RMK
SLP134 T02650221=




000
SAZS31 NSTU 031851
MTRPPG
METAR NSTU 031851Z 11018G24KT 12SM SCT022 BKN040 OVC100 26/22 A2990
RMK SLP127 T02630221=




000
SAZS31 NSTU 031751
MTRPPG
METAR NSTU 031750Z 10018G26KT 12SM SCT021 BKN040 OVC100 26/22 A2988
RMK SLP120 60000 8/87/ T02610224 10265 20256 52008=




000
SAZS31 NSTU 031702
MTRPPG
METAR NSTU 031655Z 11016KT 10SM SCT023 BKN040 OVC100 26/22 A2987 RMK
SLP115 T02620224=




000
SAZS31 NSTU 031702
MTRPPG
METAR NSTU 031655Z 11016KT 10SM SCT023 BKN040 OVC100 26/22 A2987 RMK
SLP115 T02620224=




000
SAZS31 NSTU 031617
MTRPPG
METAR NSTU 031554Z 11014KT 10SM SCT020 BKN040 OVC100 26/23 A2986 RMK
SLP113 T02620225=




000
SAZS31 NSTU 031617
MTRPPG
METAR NSTU 031554Z 11014KT 10SM SCT020 BKN040 OVC100 26/23 A2986 RMK
SLP113 T02620225=




000
SAZS31 NSTU 031616
MTRPPG
METAR NSTU 031450Z 11016KT 10SM SCT023 BKN040 OVC100 26/22 A2986 RMK
SLP112 60000 8/87/ T02610224 57008=




000
SAZS31 NSTU 031616
MTRPPG
METAR NSTU 031450Z 11016KT 10SM SCT023 BKN040 OVC100 26/22 A2986 RMK
SLP112 60000 8/87/ T02610224 57008=




000
SAZS31 NSTU 031615
MTRPPG
METAR NSTU 031352Z 11016KT 10SM SCT022 BKN040 OVC100 26/23 A2987 RMK
SLP115 T02600227=




000
SAZS31 NSTU 031615
MTRPPG
METAR NSTU 031352Z 11016KT 10SM SCT022 BKN040 OVC100 26/23 A2987 RMK
SLP115 T02600227=




000
SAZS31 NSTU 031609
MTRPPG
METAR NSTU 031450Z 11016KT 10SM SCT023 BKN040 OVC100 26/22 A2986 RMK
SLP112 60000 8/87/ T02610224 57008=




000
SAZS31 NSTU 031608
MTRPPG
METAR NSTU 031554Z 11014KT 10SM SCT020 BKN040 OVC100 26/23 A2986 RMK
SLP113 T02620225=




000
SAZS31 NSTU 031607
MTRPPG
METAR NSTU 031352Z 11016KT 10SM SCT022 BKN040 OVC100 26/23 A2987 RMK
SLP115 T02600227=




000
SAZS31 NSTU 031257
MTRPPG
METAR NSTU 031252Z 11016KT 10SM SCT022 BKN040 OVC100 27/23 A2987 RMK
RAE10 SLP117 T02650226=




000
SAZS31 NSTU 031257
MTRPPG
METAR NSTU 031252Z 11016KT 10SM SCT022 BKN040 OVC100 27/23 A2987 RMK
RAE10 SLP117 T02650226=




000
SAZS31 NSTU 031256
MTRPPG
METAR NSTU 031150Z CORR 11017G24KT 7SM -RA SCT022 BKN040 OVC100 26/23
A2988 RMK RAB20 SLP120 60001 70029 8/87/ T02560226 10265 20256 57002=




000
SAZS31 NSTU 031256
MTRPPG
METAR NSTU 031150Z CORR 11017G24KT 7SM -RA SCT022 BKN040 OVC100 26/23
A2988 RMK RAB20 SLP120 60001 70029 8/87/ T02560226 10265 20256 57002=




000
SAZS31 NSTU 031154
MTRPPG
METAR NSTU 031150Z 11017G24KT 7SM -RA SCT022 BKN040 OVC100 26/23
A2988 RMK SLP120 60001 70029 8/87/ T02560226 10265 20256 57002=




000
SAZS31 NSTU 031052
MTRPPG
METAR NSTU 031050Z 11016KT 10SM SCT022 BKN040 OVC100 26/23 A2989 RMK
SHRAE01 SLP122 T02640232 402640246=




000
SAZS31 NSTU 030951
MTRPPG
METAR NSTU 030950Z 10018KT 10SM -SHRA SCT018 BKN035 OVC080 26/22
A2990 RMK SLP125 T02630224=





000
SAZS31 NSTU 030852
MTRPPG
METAR NSTU 030850Z 10018G27KT 10SM -SHRA SCT018 BKN035 OVC080 26/22
A2989 RMK SLP122 60000 8/82/ T02570224 53012=




000
SAZS31 NSTU 030852
MTRPPG
METAR NSTU 030850Z 10018G27KT 10SM -SHRA SCT018 BKN035 OVC080 26/22
A2989 RMK SLP122 60000 8/82/ T02570224 53012=




000
SAZS31 NSTU 030751
MTRPPG
METAR NSTU 030750Z 10017G24KT 10SM -SHRA SCT018 BKN035 OVC080 27/23
A2987 RMK SLP117 T02650225=




000
SAZS31 NSTU 030654
MTRPPG
METAR NSTU 030650Z 10017G24KT 10SM -SHRA SCT018 BKN035 OVC080 26/23
A2986 RMK SLP112 T02640225=




000
SAZS31 NSTU 030555
MTRPPG
METAR NSTU 030550Z 11016G26KT 10SM -SHRA SCT018 BKN035 OVC080 26/23
A2985 RMK SLP110 60008 8/82/ T02630227 10263 20247 53010=





000
SAZS31 NSTU 030555
MTRPPG
METAR NSTU 030550Z 11016G26KT 10SM -SHRA SCT018 BKN035 OVC080 26/23
A2985 RMK SLP110 60008 8/82/ T02630227 10263 20247 53010=





000
SAZS31 NSTU 030452
MTRPPG
METAR NSTU 030450Z 11016G26KT 10SM -SHRA SCT018TCU BKN035 OVC080
25/23 A2984 RMK TCU ALQDS SLP107 T02540226=




000
SAZS31 NSTU 030355
MTRPPG
METAR NSTU 030351Z 11017G24KT 10SM -SHRA SCT016 BKN035 OVC080 26/23
A2983 RMK SLP102 T02620226=




000
SAZS31 NSTU 030355
MTRPPG
METAR NSTU 030351Z 11017G24KT 10SM -SHRA SCT016 BKN035 OVC080 26/23
A2983 RMK SLP102 T02620226=




000
SAZS31 NSTU 030152
MTRPPG
METAR NSTU 030150Z 11019KT 10SM -SHRA SCT016 BKN035 BKN080 25/24
A2983 RMK SLP103 T02540236=




000
SAZS31 NSTU 030103
MTRPPG
METAR NSTU 030053Z 11020G26KT 08SM -SHRA SCT005 BKN014TCU OVC030
25/24 A2985 RMK TCU W-N-NE SLP110 T02470235=




000
SAZS31 NSTU 030103
MTRPPG
METAR NSTU 030053Z 11020G26KT 08SM -SHRA SCT005 BKN014TCU OVC030
25/24 A2985 RMK TCU W-N-NE SLP110 T02470235=




000
SAZS31 NSTU 022354
MTRPPG
METAR NSTU 022353Z 13014G23KT 08SM -SHRA SCT005 BKN014TCU OVC030
25/24 A2987 RMK TCU ALQDS SLP117 60009 8/8// T02520239 10262 20249
57014=




000
SAZS31 NSTU 022251
MTRPPG
METAR NSTU 022250Z 10017KT 08SM -SHRA VV005 25/24 A2990 RMK SLP127
T02500237=




000
SAZS31 NSTU 022156
MTRPPG
METAR NSTU 022155Z 11016KT 10SM -SHRA FEW005 BKN015TCU OVC035 26/24
A2991 RMK TCU ALQDS SLP130 T02550237=




000
SAZS31 NSTU 022156
MTRPPG
METAR NSTU 022155Z 11016KT 10SM -SHRA FEW005 BKN015TCU OVC035 26/24
A2991 RMK TCU ALQDS SLP130 T02550237=




000
SAZS31 NSTU 022054
MTRPPG
METAR NSTU 022053Z 09017KT 11SM -SHRA SCT016 BKN035 OVC080 26/24
A2991 RMK SLP130 60005 8/82/ T02620236 52014=




000
SAZS31 NSTU 022054
MTRPPG
METAR NSTU 022053Z 09017KT 11SM -SHRA SCT016 BKN035 OVC080 26/24
A2991 RMK SLP130 60005 8/82/ T02620236 52014=




000
SAZS31 NSTU 021959
MTRPPG
METAR NSTU 021957Z 12014KT 10SM -SHRA SCT016 BKN035 OVC080 26/24
A2991 RMK SLP129 T02610241=




000
SAZS31 NSTU 021853
MTRPPG
METAR NSTU 021850Z 12013G24KT 10SM -SHRA FEW005 BKN015TCU OVC035
25/23 A2989 RMK TCU ALQDS SLP124 T02490234=




000
SAZS31 NSTU 021759
MTRPPG
METAR NSTU 021750Z 12016KT 10SM -SHRA FEW005 SCT028 OVC080 26/23
A2987 RMK SLP117 60068 8/82/ T02550234 10255 20246 51008=




000
SAZS31 NSTU 021759
MTRPPG
METAR NSTU 021750Z 12016KT 10SM -SHRA FEW005 SCT028 OVC080 26/23
A2987 RMK SLP117 60068 8/82/ T02550234 10255 20246 51008=




000
SAZS31 NSTU 021653
MTRPPG
METAR NSTU 021652Z 11015KT 5SM -SHRA FEW005 BKN014 OVC038 25/23
A2985 RMK SLP110 T02460233=




000
SAZS31 NSTU 021603
MTRPPG
METAR NSTU 021552Z 11020G24KT 4SM -SHRA FEW006 BKN013 OVC038 25/23
A2985 RMK SLP108 T02530230=




000
SAZS31 NSTU 021603
MTRPPG
METAR NSTU 021552Z 11020G24KT 4SM -SHRA FEW006 BKN013 OVC038 25/23
A2985 RMK SLP108 T02530230=




000
SAZS31 NSTU 021543
MTRPPG
METAR NSTU 021450Z 12016G25KT 4SM -SHRA FEW006 BKN013 OVC038 25/23
A2985 RMK SLP108 60009 8/8// T02510234 56014=




000
SAZS31 NSTU 021543
MTRPPG
METAR NSTU 021450Z 12016G25KT 4SM -SHRA FEW006 BKN013 OVC038 25/23
A2985 RMK SLP108 60009 8/8// T02510234 56014=




000
SAZS31 NSTU 021355
MTRPPG
METAR NSTU 021353Z 13016G25KT 4SM -SHRA FEW006 BKN013 OVC038 25/24
A2986 RMK SLP112 T02480235=




000
SAZS31 NSTU 021355
MTRPPG
METAR NSTU 021353Z 13016G25KT 4SM -SHRA FEW006 BKN013 OVC038 25/24
A2986 RMK SLP112 T02480235=




000
SAZS31 NSTU 021253
MTRPPG
METAR NSTU 021251Z 11017G23KT 5SM -SHRA FEW006 BKN013 OVC038 25/24
A2987 RMK SLP117 T02500235=




000
SAZS31 NSTU 021154
MTRPPG
METAR NSTU 021150Z 11018G23KT 5SM -SHRA FEW006 SCT013 BKN038 OVC100
25/24 A2989 RMK SLP122 60030 70053 8/82/ T02500237 10252 20248 57003=




000
SAZS31 NSTU 021052
MTRPPG
METAR NSTU 021050Z 12017G24KT 4SM -SHRA SCT006 BKN012 OVC038 25/24
A2988 RMK SLP120 T02510239 402940247=




000
SAZS31 NSTU 020954
MTRPPG
METAR NSTU 020950Z 13019KT 8SM -SHRA SCT006 BKN015TCU OVC038 25/24
A2990 RMK TCU ALQDS SLP125 T02510240=





000
SAZS31 NSTU 020854
MTRPPG
METAR NSTU 020852Z 13016KT 8SM -SHRA SCT006 BKN015TCU OVC038 25/24
A2990 RMK TCU ALQDS SLP125 60017 8/4// T02520238 52007=




000
SAZS31 NSTU 020854
MTRPPG
METAR NSTU 020852Z 13016KT 8SM -SHRA SCT006 BKN015TCU OVC038 25/24
A2990 RMK TCU ALQDS SLP125 60017 8/4// T02520238 52007=




000
SAZS31 NSTU 020753
MTRPPG
METAR NSTU 020751Z 10019KT 8SM -SHRA SCT006 BKN015TCU OVC038 25/24
A2989 RMK TCU ALQDS SLP124 T02510240=




000
SAZS31 NSTU 020651
MTRPPG
METAR NSTU 020650Z 12015KT 6SM -SHRA SCT005 BKN015TCU OVC038 25/24
A2988 RMK TCU ALQDS SLP120 T02480240=




000
SAZS31 NSTU 020508
MTRPPG
METAR NSTU 020454Z 13016KT 6SM -SHRA SCT007 BKN016TCU OVC040 25/24
A2985 RMK TCU ALQDS SLP108 T02470236=




000
SAZS31 NSTU 020508
MTRPPG
METAR NSTU 020454Z 13016KT 6SM -SHRA SCT007 BKN016TCU OVC040 25/24
A2985 RMK TCU ALQDS SLP108 T02470236=




000
SAZS31 NSTU 020352
MTRPPG
METAR NSTU 020350Z 14016KT 10SM -SHRA SCT006 BKN014 BKN030 OVC080
26/24 A2983 RMK SLP103 T02560241=




000
SAZS31 NSTU 020253
MTRPPG
METAR NSTU 020250Z 11016KT 12SM -SHRA FEW006 SCT014 BKN030 BKN080
26/25 A2983 RMK SLP103 60002 8/870 T02640246 56010=




000
SAZS31 NSTU 020253
MTRPPG
METAR NSTU 020250Z 11016KT 12SM -SHRA FEW006 SCT014 BKN030 BKN080
26/25 A2983 RMK SLP103 60002 8/870 T02640246 56010=




    US Dept of Commerce
    National Oceanic and Atmospheric Administration
    National Weather Service
    1325 East West Highway
    Silver Spring, MD 20910
    Page Author: NWS Internet Services Team
Disclaimer
Information Quality
Credits
Glossary
Privacy Policy
Freedom of Information Act (FOIA)
About Us
Career Opportunities